sensor_id;sensor_type;location;lat;lon;timestamp;pressure;altitude;pressure_sealevel;temperature;humidity
41712;BME280;27399;51.516;13.670;2023-06-04T00:02:18;100969.81;;;13.24;60.29
41712;BME280;27399;51.516;13.670;2023-06-04T00:04:47;100948.50;;;13.14;60.28
41712;BME280;27399;51.516;13.670;2023-06-04T00:07:19;100973.47;;;13.20;60.62
41712;BME280;27399;51.516;13.670;2023-06-04T00:09:51;100956.56;;;13.13;60.49
41712;BME280;27399;51.516;13.670;2023-06-04T00:12:20;100973.50;;;13.13;60.69
41712;BME280;27399;51.516;13.670;2023-06-04T00:14:52;100967.34;;;13.05;60.86
41712;BME280;27399;51.516;13.670;2023-06-04T00:17:33;100944.41;;;12.79;60.72
41712;BME280;27399;51.516;13.670;2023-06-04T00:20:10;100965.63;;;12.98;60.58
41712;BME280;27399;51.516;13.670;2023-06-04T00:22:39;100973.66;;;12.99;61.53
41712;BME280;27399;51.516;13.670;2023-06-04T00:25:13;100975.56;;;12.86;61.39
41712;BME280;27399;51.516;13.670;2023-06-04T00:27:42;100961.19;;;12.97;60.88
41712;BME280;27399;51.516;13.670;2023-06-04T00:30:11;100962.19;;;12.85;61.65
41712;BME280;27399;51.516;13.670;2023-06-04T00:32:39;100960.47;;;12.78;60.93
41712;BME280;27399;51.516;13.670;2023-06-04T00:35:11;100960.38;;;12.89;60.96
41712;BME280;27399;51.516;13.670;2023-06-04T00:37:40;100967.63;;;12.74;60.99
41712;BME280;27399;51.516;13.670;2023-06-04T00:40:12;100969.44;;;12.72;61.08
41712;BME280;27399;51.516;13.670;2023-06-04T00:42:46;100969.41;;;12.78;61.60
41712;BME280;27399;51.516;13.670;2023-06-04T00:45:17;100960.56;;;12.67;61.35
41712;BME280;27399;51.516;13.670;2023-06-04T00:47:52;100962.38;;;12.62;61.97
41712;BME280;27399;51.516;13.670;2023-06-04T00:50:29;100961.53;;;12.57;61.70
41712;BME280;27399;51.516;13.670;2023-06-04T00:53:02;100941.16;;;12.38;61.78
41712;BME280;27399;51.516;13.670;2023-06-04T00:55:28;100961.47;;;12.63;61.39
41712;BME280;27399;51.516;13.670;2023-06-04T00:57:53;100951.84;;;12.42;62.02
41712;BME280;27399;51.516;13.670;2023-06-04T01:00:19;100942.09;;;12.33;61.44
41712;BME280;27399;51.516;13.670;2023-06-04T01:02:47;100961.59;;;12.49;61.08
41712;BME280;27399;51.516;13.670;2023-06-04T01:05:29;100954.56;;;12.37;61.45
41712;BME280;27399;51.516;13.670;2023-06-04T01:07:57;100942.19;;;12.23;62.36
41712;BME280;27399;51.516;13.670;2023-06-04T01:10:23;100962.63;;;12.31;62.40
41712;BME280;27399;51.516;13.670;2023-06-04T01:12:48;100942.25;;;12.08;62.71
41712;BME280;27399;51.516;13.670;2023-06-04T01:15:14;100953.81;;;12.12;62.78
41712;BME280;27399;51.516;13.670;2023-06-04T01:17:51;100953.78;;;12.21;62.38
41712;BME280;27399;51.516;13.670;2023-06-04T01:20:28;100950.25;;;12.13;62.65
41712;BME280;27399;51.516;13.670;2023-06-04T01:26:04;100948.47;;;12.16;62.77
41712;BME280;27399;51.516;13.670;2023-06-04T01:28:31;100946.75;;;12.06;62.82
41712;BME280;27399;51.516;13.670;2023-06-04T01:30:57;100942.31;;;12.02;63.08
41712;BME280;27399;51.516;13.670;2023-06-04T01:33:25;100936.94;;;12.06;62.88
41712;BME280;27399;51.516;13.670;2023-06-04T01:35:51;100944.06;;;11.97;63.60
41712;BME280;27399;51.516;13.670;2023-06-04T01:38:17;100948.56;;;11.94;63.68
41712;BME280;27399;51.516;13.670;2023-06-04T01:40:43;100942.34;;;11.86;63.88
41712;BME280;27399;51.516;13.670;2023-06-04T01:43:09;100943.25;;;11.90;63.35
41712;BME280;27399;51.516;13.670;2023-06-04T01:45:35;100947.78;;;11.78;63.46
41712;BME280;27399;51.516;13.670;2023-06-04T01:48:02;100945.00;;;11.92;62.92
41712;BME280;27399;51.516;13.670;2023-06-04T01:50:27;100945.97;;;11.82;63.80
41712;BME280;27399;51.516;13.670;2023-06-04T01:52:53;100947.78;;;11.71;63.65
41712;BME280;27399;51.516;13.670;2023-06-04T01:55:19;100943.31;;;11.71;63.18
41712;BME280;27399;51.516;13.670;2023-06-04T01:57:46;100937.13;;;11.68;63.72
41712;BME280;27399;51.516;13.670;2023-06-04T02:00:13;100944.31;;;11.58;64.42
41712;BME280;27399;51.516;13.670;2023-06-04T02:02:44;100937.19;;;11.52;64.25
41712;BME280;27399;51.516;13.670;2023-06-04T02:05:13;100934.50;;;11.55;63.73
41712;BME280;27399;51.516;13.670;2023-06-04T02:07:41;100946.97;;;11.59;64.34
41712;BME280;27399;51.516;13.670;2023-06-04T02:10:08;100948.75;;;11.57;64.69
41712;BME280;27399;51.516;13.670;2023-06-04T02:12:38;100951.44;;;11.45;64.17
41712;BME280;27399;51.516;13.670;2023-06-04T02:15:04;100952.34;;;11.53;64.02
41712;BME280;27399;51.516;13.670;2023-06-04T02:17:30;100952.41;;;11.30;64.69
41712;BME280;27399;51.516;13.670;2023-06-04T02:20:03;100949.72;;;11.41;64.71
41712;BME280;27399;51.516;13.670;2023-06-04T02:22:29;100949.72;;;11.41;64.78
41712;BME280;27399;51.516;13.670;2023-06-04T02:24:54;100941.75;;;11.27;65.05
41712;BME280;27399;51.516;13.670;2023-06-04T02:27:20;100951.50;;;11.39;64.80
41712;BME280;27399;51.516;13.670;2023-06-04T02:29:46;100953.31;;;11.30;65.30
41712;BME280;27399;51.516;13.670;2023-06-04T02:32:11;100949.75;;;11.24;64.56
41712;BME280;27399;51.516;13.670;2023-06-04T02:34:37;100948.00;;;11.18;64.73
41712;BME280;27399;51.516;13.670;2023-06-04T02:37:03;100950.63;;;11.16;64.15
41712;BME280;27399;51.516;13.670;2023-06-04T02:39:29;100952.44;;;11.18;64.83
41712;BME280;27399;51.516;13.670;2023-06-04T02:41:55;100948.88;;;11.19;64.90
41712;BME280;27399;51.516;13.670;2023-06-04T02:44:20;100948.03;;;10.96;65.43
41712;BME280;27399;51.516;13.670;2023-06-04T02:46:46;100940.91;;;10.98;65.76
41712;BME280;27399;51.516;13.670;2023-06-04T02:49:12;100929.38;;;10.92;66.09
41712;BME280;27399;51.516;13.670;2023-06-04T02:51:42;100941.81;;;10.91;66.10
41712;BME280;27399;51.516;13.670;2023-06-04T02:54:08;100943.59;;;10.95;66.42
41712;BME280;27399;51.516;13.670;2023-06-04T02:56:34;100943.59;;;10.94;66.22
41712;BME280;27399;51.516;13.670;2023-06-04T02:59:00;100945.38;;;10.87;66.69
41712;BME280;27399;51.516;13.670;2023-06-04T03:01:26;100947.16;;;10.97;66.28
41712;BME280;27399;51.516;13.670;2023-06-04T03:03:53;100950.69;;;10.96;66.32
41712;BME280;27399;51.516;13.670;2023-06-04T03:06:21;100952.47;;;10.87;66.54
41712;BME280;27399;51.516;13.670;2023-06-04T03:08:50;100955.16;;;10.82;66.90
41712;BME280;27399;51.516;13.670;2023-06-04T03:11:20;100949.84;;;10.79;66.74
41712;BME280;27399;51.516;13.670;2023-06-04T03:13:49;100953.41;;;10.82;66.35
41712;BME280;27399;51.516;13.670;2023-06-04T03:16:16;100960.50;;;10.76;66.46
41712;BME280;27399;51.516;13.670;2023-06-04T03:18:43;100957.81;;;10.87;66.74
41712;BME280;27399;51.516;13.670;2023-06-04T03:21:09;100957.84;;;10.88;66.59
41712;BME280;27399;51.516;13.670;2023-06-04T03:23:37;100956.06;;;10.72;66.75
41712;BME280;27399;51.516;13.670;2023-06-04T03:26:03;100958.69;;;10.90;66.49
41712;BME280;27399;51.516;13.670;2023-06-04T03:28:30;100954.28;;;10.86;66.06
41712;BME280;27399;51.516;13.670;2023-06-04T03:30:55;100960.50;;;10.76;66.15
41712;BME280;27399;51.516;13.670;2023-06-04T03:33:21;100957.84;;;10.65;67.04
41712;BME280;27399;51.516;13.670;2023-06-04T03:35:47;100969.38;;;10.76;66.28
41712;BME280;27399;51.516;13.670;2023-06-04T03:38:14;100964.06;;;10.54;67.39
41712;BME280;27399;51.516;13.670;2023-06-04T03:40:40;100963.19;;;10.68;67.24
41712;BME280;27399;51.516;13.670;2023-06-04T03:43:06;100964.94;;;10.66;67.37
41712;BME280;27399;51.516;13.670;2023-06-04T03:45:31;100965.84;;;10.73;67.23
41712;BME280;27399;51.516;13.670;2023-06-04T03:47:57;100964.94;;;10.70;67.06
41712;BME280;27399;51.516;13.670;2023-06-04T03:50:23;100964.94;;;10.61;67.62
41712;BME280;27399;51.516;13.670;2023-06-04T03:52:48;100972.97;;;10.67;68.12
41712;BME280;27399;51.516;13.670;2023-06-04T03:55:14;100966.72;;;10.76;67.10
41712;BME280;27399;51.516;13.670;2023-06-04T03:57:40;100976.53;;;10.71;67.51
41712;BME280;27399;51.516;13.670;2023-06-04T04:00:10;100965.84;;;10.66;68.00
41712;BME280;27399;51.516;13.670;2023-06-04T04:02:37;100972.97;;;10.74;67.78
41712;BME280;27399;51.516;13.670;2023-06-04T04:05:03;100964.94;;;10.74;67.56
41712;BME280;27399;51.516;13.670;2023-06-04T04:07:29;100975.63;;;10.77;68.06
41712;BME280;27399;51.516;13.670;2023-06-04T04:09:55;100980.97;;;10.84;67.42
41712;BME280;27399;51.516;13.670;2023-06-04T04:12:20;100987.19;;;10.79;67.68
41712;BME280;27399;51.516;13.670;2023-06-04T04:14:46;100988.97;;;10.86;67.61
41712;BME280;27399;51.516;13.670;2023-06-04T04:17:13;100985.41;;;10.72;68.28
41712;BME280;27399;51.516;13.670;2023-06-04T04:19:39;100986.31;;;10.84;67.95
41712;BME280;27399;51.516;13.670;2023-06-04T04:22:05;100987.19;;;10.82;68.79
41712;BME280;27399;51.516;13.670;2023-06-04T04:24:31;100985.41;;;10.92;69.10
41712;BME280;27399;51.516;13.670;2023-06-04T04:27:00;100985.41;;;10.89;69.23
41712;BME280;27399;51.516;13.670;2023-06-04T04:29:25;100982.75;;;10.87;69.75
41712;BME280;27399;51.516;13.670;2023-06-04T04:31:53;100976.53;;;10.88;69.42
41712;BME280;27399;51.516;13.670;2023-06-04T04:34:25;100980.91;;;11.09;69.27
41712;BME280;27399;51.516;13.670;2023-06-04T04:36:51;100979.16;;;11.14;69.13
41712;BME280;27399;51.516;13.670;2023-06-04T04:39:25;100986.25;;;11.17;69.70
41712;BME280;27399;51.516;13.670;2023-06-04T04:41:51;100986.22;;;11.29;68.79
41712;BME280;27399;51.516;13.670;2023-06-04T04:44:17;100983.53;;;11.42;68.22
41712;BME280;27399;51.516;13.670;2023-06-04T04:46:43;100983.53;;;11.39;68.97
41712;BME280;27399;51.516;13.670;2023-06-04T04:49:08;100977.25;;;11.51;68.59
41712;BME280;27399;51.516;13.670;2023-06-04T04:54:55;100987.00;;;11.66;69.31
41712;BME280;27399;51.516;13.670;2023-06-04T04:57:23;100978.09;;;11.70;69.25
41712;BME280;27399;51.516;13.670;2023-06-04T04:59:49;100979.88;;;11.68;69.59
41712;BME280;27399;51.516;13.670;2023-06-04T05:08:58;100997.56;;;12.03;70.09
41712;BME280;27399;51.516;13.670;2023-06-04T05:11:24;101001.97;;;12.10;70.46
41712;BME280;27399;51.516;13.670;2023-06-04T05:13:51;101003.69;;;12.17;70.62
41712;BME280;27399;51.516;13.670;2023-06-04T05:16:16;100997.41;;;12.28;70.20
41712;BME280;27399;51.516;13.670;2023-06-04T05:18:45;100995.53;;;12.39;70.61
41712;BME280;27399;51.516;13.670;2023-06-04T05:21:11;100984.78;;;12.47;70.87
41712;BME280;27399;51.516;13.670;2023-06-04T05:23:39;101006.97;;;12.60;70.64
41712;BME280;27399;51.516;13.670;2023-06-04T05:26:05;100997.13;;;12.68;71.05
41712;BME280;27399;51.516;13.670;2023-06-04T05:28:31;101015.78;;;12.76;71.34
41712;BME280;27399;51.516;13.670;2023-06-04T05:31:00;101003.16;;;12.93;70.45
41712;BME280;27399;51.516;13.670;2023-06-04T05:33:26;100992.44;;;12.92;70.24
41712;BME280;27399;51.516;13.670;2023-06-04T05:35:52;101002.97;;;13.15;70.03
41712;BME280;27399;51.516;13.670;2023-06-04T05:38:31;101004.59;;;13.28;69.53
41712;BME280;27399;51.516;13.670;2023-06-04T05:41:21;101011.59;;;13.48;69.96
41712;BME280;27399;51.516;13.670;2023-06-04T05:43:49;101005.13;;;13.64;69.58
41712;BME280;27399;51.516;13.670;2023-06-04T05:53:24;101011.66;;;14.14;67.98
41712;BME280;27399;51.516;13.670;2023-06-04T05:55:49;101019.53;;;14.24;67.76
41712;BME280;27399;51.516;13.670;2023-06-04T05:58:15;101013.84;;;14.48;65.94
41712;BME280;27399;51.516;13.670;2023-06-04T06:00:41;101014.50;;;14.62;66.15
41712;BME280;27399;51.516;13.670;2023-06-04T06:03:06;101007.22;;;14.74;63.24
41712;BME280;27399;51.516;13.670;2023-06-04T06:05:32;101008.81;;;14.85;64.73
41712;BME280;27399;51.516;13.670;2023-06-04T06:07:58;101010.28;;;15.05;62.29
41712;BME280;27399;51.516;13.670;2023-06-04T06:10:23;101006.41;;;15.20;62.36
41712;BME280;27399;51.516;13.670;2023-06-04T06:12:49;101005.44;;;15.24;63.32
41712;BME280;27399;51.516;13.670;2023-06-04T06:15:15;101010.56;;;15.37;62.07
41712;BME280;27399;51.516;13.670;2023-06-04T06:17:40;101011.00;;;15.60;61.45
41712;BME280;27399;51.516;13.670;2023-06-04T06:20:06;101016.97;;;15.76;61.50
41712;BME280;27399;51.516;13.670;2023-06-04T06:22:35;101012.34;;;15.86;61.19
41712;BME280;27399;51.516;13.670;2023-06-04T06:25:02;101027.16;;;16.04;60.78
41712;BME280;27399;51.516;13.670;2023-06-04T06:27:28;101034.88;;;16.21;60.02
41712;BME280;27399;51.516;13.670;2023-06-04T06:29:54;101027.50;;;16.30;60.00
41712;BME280;27399;51.516;13.670;2023-06-04T06:32:19;101037.06;;;16.45;60.37
41712;BME280;27399;51.516;13.670;2023-06-04T06:34:45;101039.38;;;16.60;59.65
41712;BME280;27399;51.516;13.670;2023-06-04T06:37:10;101033.75;;;16.71;61.03
41712;BME280;27399;51.516;13.670;2023-06-04T06:39:36;101034.28;;;16.85;59.39
41712;BME280;27399;51.516;13.670;2023-06-04T06:42:02;101035.91;;;16.93;59.25
41712;BME280;27399;51.516;13.670;2023-06-04T06:44:27;101036.22;;;17.16;58.75
41712;BME280;27399;51.516;13.670;2023-06-04T06:46:53;101031.41;;;17.29;58.27
41712;BME280;27399;51.516;13.670;2023-06-04T06:49:18;101035.56;;;17.41;56.66
41712;BME280;27399;51.516;13.670;2023-06-04T06:51:44;101042.41;;;17.55;58.51
41712;BME280;27399;51.516;13.670;2023-06-04T06:54:10;101049.13;;;17.71;57.60
41712;BME280;27399;51.516;13.670;2023-06-04T06:56:36;101024.19;;;17.63;54.54
41712;BME280;27399;51.516;13.670;2023-06-04T06:59:01;101037.78;;;17.91;55.36
41712;BME280;27399;51.516;13.670;2023-06-04T07:01:27;101040.00;;;18.08;56.32
41712;BME280;27399;51.516;13.670;2023-06-04T07:03:53;101040.56;;;18.20;56.73
41712;BME280;27399;51.516;13.670;2023-06-04T07:06:18;101045.28;;;18.41;54.53
41712;BME280;27399;51.516;13.670;2023-06-04T07:08:44;101045.59;;;18.61;54.35
41712;BME280;27399;51.516;13.670;2023-06-04T07:11:09;101039.69;;;18.76;52.81
41712;BME280;27399;51.516;13.670;2023-06-04T07:13:38;101037.63;;;18.84;53.19
41712;BME280;27399;51.516;13.670;2023-06-04T07:16:04;101032.91;;;18.91;52.36
41712;BME280;27399;51.516;13.670;2023-06-04T07:18:30;101031.22;;;19.15;52.15
41712;BME280;27399;51.516;13.670;2023-06-04T07:20:55;101040.00;;;19.22;51.69
41712;BME280;27399;51.516;13.670;2023-06-04T07:23:21;101035.63;;;19.18;49.34
41712;BME280;27399;51.516;13.670;2023-06-04T07:25:46;101032.56;;;19.54;50.42
41712;BME280;27399;51.516;13.670;2023-06-04T07:28:12;101037.56;;;19.65;50.53
41712;BME280;27399;51.516;13.670;2023-06-04T07:30:38;101040.50;;;19.59;48.30
41712;BME280;27399;51.516;13.670;2023-06-04T07:33:04;101041.59;;;19.78;48.40
41712;BME280;27399;51.516;13.670;2023-06-04T07:35:29;101034.75;;;19.93;46.97
41712;BME280;27399;51.516;13.670;2023-06-04T07:37:55;101032.16;;;20.14;47.24
41712;BME280;27399;51.516;13.670;2023-06-04T07:40:21;101031.56;;;20.30;48.04
41712;BME280;27399;51.516;13.670;2023-06-04T07:42:47;101032.81;;;20.43;48.61
41712;BME280;27399;51.516;13.670;2023-06-04T07:45:14;101035.13;;;20.30;46.30
41712;BME280;27399;51.516;13.670;2023-06-04T07:47:40;101040.66;;;20.51;45.40
41712;BME280;27399;51.516;13.670;2023-06-04T07:50:06;101033.47;;;20.50;46.56
41712;BME280;27399;51.516;13.670;2023-06-04T07:52:33;101036.06;;;20.53;44.97
41712;BME280;27399;51.516;13.670;2023-06-04T07:54:59;101032.59;;;20.71;45.42
41712;BME280;27399;51.516;13.670;2023-06-04T07:57:25;101029.31;;;20.63;42.49
41712;BME280;27399;51.516;13.670;2023-06-04T07:59:51;101029.28;;;20.87;43.32
41712;BME280;27399;51.516;13.670;2023-06-04T08:02:17;101034.97;;;21.01;43.90
41712;BME280;27399;51.516;13.670;2023-06-04T08:04:44;101032.63;;;20.94;43.11
41712;BME280;27399;51.516;13.670;2023-06-04T08:07:09;101023.28;;;21.01;42.81
41712;BME280;27399;51.516;13.670;2023-06-04T08:09:35;101022.75;;;21.13;43.08
41712;BME280;27399;51.516;13.670;2023-06-04T08:12:01;101028.59;;;21.25;44.31
41712;BME280;27399;51.516;13.670;2023-06-04T08:14:26;101029.94;;;21.14;41.84
41712;BME280;27399;51.516;13.670;2023-06-04T08:16:53;101018.00;;;21.18;42.77
41712;BME280;27399;51.516;13.670;2023-06-04T08:19:19;101021.41;;;21.44;42.04
41712;BME280;27399;51.516;13.670;2023-06-04T08:21:44;101021.84;;;21.54;41.01
41712;BME280;27399;51.516;13.670;2023-06-04T08:24:11;101017.88;;;21.42;40.93
41712;BME280;27399;51.516;13.670;2023-06-04T08:26:36;101024.50;;;21.56;41.52
41712;BME280;27399;51.516;13.670;2023-06-04T08:29:03;101035.25;;;21.59;41.92
41712;BME280;27399;51.516;13.670;2023-06-04T08:31:32;101016.78;;;21.67;41.35
41712;BME280;27399;51.516;13.670;2023-06-04T08:33:58;101028.66;;;21.85;43.40
41712;BME280;27399;51.516;13.670;2023-06-04T08:36:24;101031.16;;;21.90;41.95
41712;BME280;27399;51.516;13.670;2023-06-04T08:38:49;101035.03;;;22.03;42.87
41712;BME280;27399;51.516;13.670;2023-06-04T08:41:30;101030.41;;;22.05;41.36
41712;BME280;27399;51.516;13.670;2023-06-04T08:44:00;101032.66;;;22.16;41.86
41712;BME280;27399;51.516;13.670;2023-06-04T08:46:31;101023.16;;;22.25;40.31
41712;BME280;27399;51.516;13.670;2023-06-04T08:49:00;101025.41;;;22.34;41.24
41712;BME280;27399;51.516;13.670;2023-06-04T08:51:28;101023.03;;;22.47;41.14
41712;BME280;27399;51.516;13.670;2023-06-04T08:53:54;101023.16;;;22.25;39.51
41712;BME280;27399;51.516;13.670;2023-06-04T08:56:22;101030.06;;;22.51;40.31
41712;BME280;27399;51.516;13.670;2023-06-04T08:58:48;101033.59;;;22.53;39.44
41712;BME280;27399;51.516;13.670;2023-06-04T09:01:14;101033.38;;;22.58;39.32
41712;BME280;27399;51.516;13.670;2023-06-04T09:03:41;101031.22;;;22.84;40.09
41712;BME280;27399;51.516;13.670;2023-06-04T09:06:07;101031.59;;;22.57;38.10
41712;BME280;27399;51.516;13.670;2023-06-04T09:08:37;101029.25;;;22.86;40.23
41712;BME280;27399;51.516;13.670;2023-06-04T09:11:08;101029.94;;;23.09;40.89
41712;BME280;27399;51.516;13.670;2023-06-04T09:13:36;101017.94;;;22.95;39.41
41712;BME280;27399;51.516;13.670;2023-06-04T09:16:03;101022.84;;;23.24;39.16
41712;BME280;27399;51.516;13.670;2023-06-04T09:18:29;101025.66;;;23.40;39.89
41712;BME280;27399;51.516;13.670;2023-06-04T09:21:03;101031.94;;;23.58;41.01
41712;BME280;27399;51.516;13.670;2023-06-04T09:23:28;101027.22;;;23.61;40.41
41712;BME280;27399;51.516;13.670;2023-06-04T09:25:55;101030.72;;;23.81;40.11
41712;BME280;27399;51.516;13.670;2023-06-04T09:28:21;101033.59;;;23.95;41.95
41712;BME280;27399;51.516;13.670;2023-06-04T09:30:53;101027.00;;;23.82;39.28
41712;BME280;27399;51.516;13.670;2023-06-04T09:33:19;101030.38;;;23.54;38.01
41712;BME280;27399;51.516;13.670;2023-06-04T09:35:58;101022.56;;;23.11;37.88
41712;BME280;27399;51.516;13.670;2023-06-04T09:38:36;101028.69;;;23.33;38.66
41712;BME280;27399;51.516;13.670;2023-06-04T09:41:02;101025.16;;;23.66;38.36
41712;BME280;27399;51.516;13.670;2023-06-04T09:43:32;101028.00;;;23.81;39.57
41712;BME280;27399;51.516;13.670;2023-06-04T09:46:11;101027.81;;;23.84;38.00
41712;BME280;27399;51.516;13.670;2023-06-04T09:48:38;101025.09;;;24.02;39.63
41712;BME280;27399;51.516;13.670;2023-06-04T09:51:14;100994.34;;;24.00;39.46
41712;BME280;27399;51.516;13.670;2023-06-04T09:54:03;101018.06;;;24.13;38.02
41712;BME280;27399;51.516;13.670;2023-06-04T09:56:29;101018.59;;;24.04;37.97
41712;BME280;27399;51.516;13.670;2023-06-04T09:58:58;101024.22;;;24.33;39.50
41712;BME280;27399;51.516;13.670;2023-06-04T10:01:29;101016.22;;;24.46;39.67
41712;BME280;27399;51.516;13.670;2023-06-04T10:03:58;101012.19;;;24.05;38.09
41712;BME280;27399;51.516;13.670;2023-06-04T10:06:26;101005.06;;;24.19;39.23
41712;BME280;27399;51.516;13.670;2023-06-04T10:08:52;101013.78;;;23.92;37.76
41712;BME280;27399;51.516;13.670;2023-06-04T10:11:33;101030.78;;;24.13;38.66
41712;BME280;27399;51.516;13.670;2023-06-04T10:14:03;100994.00;;;23.88;39.10
41712;BME280;27399;51.516;13.670;2023-06-04T10:16:32;101013.75;;;23.76;37.44
41712;BME280;27399;51.516;13.670;2023-06-04T10:18:59;101005.88;;;23.54;37.86
41712;BME280;27399;51.516;13.670;2023-06-04T10:21:26;101010.38;;;23.19;37.80
41712;BME280;27399;51.516;13.670;2023-06-04T10:23:52;100998.13;;;23.28;37.32
41712;BME280;27399;51.516;13.670;2023-06-04T10:26:18;101006.22;;;23.81;39.06
41712;BME280;27399;51.516;13.670;2023-06-04T10:28:44;101013.25;;;23.85;38.30
41712;BME280;27399;51.516;13.670;2023-06-04T10:31:10;101011.13;;;23.74;38.05
41712;BME280;27399;51.516;13.670;2023-06-04T10:33:36;101011.84;;;23.60;37.07
41712;BME280;27399;51.516;13.670;2023-06-04T10:36:20;101014.91;;;23.88;37.94
41712;BME280;27399;51.516;13.670;2023-06-04T10:38:47;101014.34;;;23.65;36.59
41712;BME280;27399;51.516;13.670;2023-06-04T10:41:14;101014.91;;;24.05;39.20
41712;BME280;27399;51.516;13.670;2023-06-04T10:43:41;101006.63;;;24.07;37.34
41712;BME280;27399;51.516;13.670;2023-06-04T10:46:39;101018.41;;;24.23;38.89
41712;BME280;27399;51.516;13.670;2023-06-04T10:49:06;101013.97;;;24.22;37.89
41712;BME280;27399;51.516;13.670;2023-06-04T10:51:33;101010.34;;;24.22;37.84
41712;BME280;27399;51.516;13.670;2023-06-04T10:54:01;101004.56;;;24.28;37.15
41712;BME280;27399;51.516;13.670;2023-06-04T10:56:28;101001.81;;;24.12;36.39
41712;BME280;27399;51.516;13.670;2023-06-04T10:58:55;101006.47;;;24.42;38.38
41712;BME280;27399;51.516;13.670;2023-06-04T11:01:25;101001.91;;;24.26;37.62
41712;BME280;27399;51.516;13.670;2023-06-04T11:03:51;101003.13;;;24.37;37.05
41712;BME280;27399;51.516;13.670;2023-06-04T11:06:17;101005.41;;;24.44;38.66
41712;BME280;27399;51.516;13.670;2023-06-04T11:08:43;100987.84;;;24.34;36.57
41712;BME280;27399;51.516;13.670;2023-06-04T11:11:15;100996.44;;;24.26;36.98
41712;BME280;27399;51.516;13.670;2023-06-04T11:13:41;100994.88;;;24.54;39.46
41712;BME280;27399;51.516;13.670;2023-06-04T11:16:20;100994.34;;;24.32;36.29
41712;BME280;27399;51.516;13.670;2023-06-04T11:18:56;100995.16;;;24.18;35.53
41712;BME280;27399;51.516;13.670;2023-06-04T11:21:22;100987.97;;;23.99;35.61
41712;BME280;27399;51.516;13.670;2023-06-04T11:23:49;100985.63;;;24.09;36.70
41712;BME280;27399;51.516;13.670;2023-06-04T11:26:20;100984.94;;;24.05;35.87
41712;BME280;27399;51.516;13.670;2023-06-04T11:28:49;100985.69;;;24.55;36.61
41712;BME280;27399;51.516;13.670;2023-06-04T11:31:15;100986.59;;;24.72;37.03
41712;BME280;27399;51.516;13.670;2023-06-04T11:33:44;100984.19;;;25.12;37.51
41712;BME280;27399;51.516;13.670;2023-06-04T11:36:21;100995.50;;;25.06;36.69
41712;BME280;27399;51.516;13.670;2023-06-04T11:39:03;100986.53;;;25.04;35.42
41712;BME280;27399;51.516;13.670;2023-06-04T11:41:33;100982.31;;;25.29;36.31
41712;BME280;27399;51.516;13.670;2023-06-04T11:44:02;100979.28;;;25.33;36.10
41712;BME280;27399;51.516;13.670;2023-06-04T11:46:29;100980.75;;;25.39;35.36
41712;BME280;27399;51.516;13.670;2023-06-04T11:48:55;100981.47;;;25.43;35.13
41712;BME280;27399;51.516;13.670;2023-06-04T11:51:21;100977.00;;;25.71;36.40
41712;BME280;27399;51.516;13.670;2023-06-04T11:53:47;100978.94;;;25.83;35.59
41712;BME280;27399;51.516;13.670;2023-06-04T11:56:13;100965.38;;;25.52;34.99
41712;BME280;27399;51.516;13.670;2023-06-04T11:58:39;100953.88;;;25.76;35.56
41712;BME280;27399;51.516;13.670;2023-06-04T12:01:07;100969.84;;;25.97;36.59
41712;BME280;27399;51.516;13.670;2023-06-04T12:03:35;100963.69;;;26.08;35.98
41712;BME280;27399;51.516;13.670;2023-06-04T12:06:34;100974.63;;;25.93;34.40
41712;BME280;27399;51.516;13.670;2023-06-04T12:12:22;100956.94;;;26.28;36.11
41712;BME280;27399;51.516;13.670;2023-06-04T12:14:57;100966.94;;;26.00;34.18
41712;BME280;27399;51.516;13.670;2023-06-04T12:17:23;100968.78;;;25.71;34.22
41712;BME280;27399;51.516;13.670;2023-06-04T12:19:51;100962.13;;;25.89;34.08
41712;BME280;27399;51.516;13.670;2023-06-04T12:22:17;100966.03;;;25.99;34.46
41712;BME280;27399;51.516;13.670;2023-06-04T12:24:51;100964.69;;;25.92;35.05
41712;BME280;27399;51.516;13.670;2023-06-04T12:27:19;100963.78;;;26.06;35.66
41712;BME280;27399;51.516;13.670;2023-06-04T12:32:22;100962.63;;;25.96;34.52
41712;BME280;27399;51.516;13.670;2023-06-04T12:34:48;100960.19;;;25.77;34.64
41712;BME280;27399;51.516;13.670;2023-06-04T12:37:13;100954.84;;;25.75;34.18
41712;BME280;27399;51.516;13.670;2023-06-04T12:39:40;100953.56;;;25.95;35.81
41712;BME280;27399;51.516;13.670;2023-06-04T12:42:06;100949.75;;;25.98;34.52
41712;BME280;27399;51.516;13.670;2023-06-04T12:44:35;100957.44;;;26.06;36.60
41712;BME280;27399;51.516;13.670;2023-06-04T12:47:02;100959.09;;;25.94;33.87
41712;BME280;27399;51.516;13.670;2023-06-04T12:49:27;100960.41;;;25.59;35.19
41712;BME280;27399;51.516;13.670;2023-06-04T12:51:53;100950.72;;;25.82;34.48
41712;BME280;27399;51.516;13.670;2023-06-04T12:54:19;100955.41;;;25.37;33.60
41712;BME280;27399;51.516;13.670;2023-06-04T12:56:45;100952.22;;;25.74;34.41
41712;BME280;27399;51.516;13.670;2023-06-04T12:59:11;100956.59;;;25.91;34.81
41712;BME280;27399;51.516;13.670;2023-06-04T13:01:37;100952.88;;;25.63;33.91
41712;BME280;27399;51.516;13.670;2023-06-04T13:04:04;100956.47;;;26.07;34.80
41712;BME280;27399;51.516;13.670;2023-06-04T13:06:29;100941.13;;;26.04;35.26
41712;BME280;27399;51.516;13.670;2023-06-04T13:08:56;100949.94;;;26.24;34.74
41712;BME280;27399;51.516;13.670;2023-06-04T13:11:21;100943.69;;;26.22;35.07